createdAt,value
2017-07-31T00:00:36.589Z,1005.85
2017-07-31T00:01:24.536Z,1005.92
2017-07-31T00:02:13.534Z,1005.90
2017-07-31T00:03:01.496Z,1005.91
2017-07-31T00:03:49.561Z,1005.92
2017-07-31T00:04:38.812Z,1005.99
2017-07-31T00:05:26.633Z,1006.02
2017-07-31T00:06:14.865Z,1006.02
2017-07-31T00:07:03.884Z,1006.03
2017-07-31T00:07:58.851Z,1006.10
2017-07-31T00:08:59.864Z,1006.15
2017-07-31T00:09:53.847Z,1006.13
2017-07-31T00:10:54.906Z,1006.08
2017-07-31T00:11:55.009Z,1006.05
2017-07-31T00:12:49.938Z,1006.05
2017-07-31T00:13:50.024Z,1005.96
2017-07-31T00:14:38.379Z,1005.91
2017-07-31T00:15:38.185Z,1005.84
2017-07-31T00:16:27.167Z,1005.86
2017-07-31T00:17:21.261Z,1005.83
2017-07-31T00:18:10.367Z,1005.79
2017-07-31T00:19:04.372Z,1005.76
2017-07-31T00:19:52.443Z,1005.72
2017-07-31T00:20:41.476Z,1005.74
2017-07-31T00:21:30.518Z,1005.79
2017-07-31T00:22:18.553Z,1005.78
2017-07-31T00:23:07.456Z,1005.83
2017-07-31T00:23:55.719Z,1005.88
2017-07-31T00:24:43.677Z,1005.92
2017-07-31T00:25:32.727Z,1005.95
2017-07-31T00:26:20.746Z,1005.94
2017-07-31T00:27:08.356Z,1006.00
2017-07-31T00:28:02.369Z,1005.99
2017-07-31T00:28:51.786Z,1005.97
2017-07-31T00:29:39.917Z,1005.98
2017-07-31T00:30:27.952Z,1005.94
2017-07-31T00:31:17.043Z,1005.96
2017-07-31T00:32:17.003Z,1005.91
2017-07-31T00:33:11.019Z,1005.86
2017-07-31T00:33:59.067Z,1005.88
2017-07-31T00:34:53.162Z,1005.86
2017-07-31T00:35:41.253Z,1005.83
2017-07-31T00:36:30.350Z,1005.83
2017-07-31T00:37:18.374Z,1005.79
2017-07-31T00:38:06.370Z,1005.75
2017-07-31T00:38:55.325Z,1005.75
2017-07-31T00:39:49.447Z,1005.76
2017-07-31T00:40:44.483Z,1005.77
2017-07-31T00:41:32.734Z,1005.76
2017-07-31T00:42:27.608Z,1005.77
2017-07-31T00:43:22.587Z,1005.72
2017-07-31T00:44:17.735Z,1005.70
2017-07-31T00:45:17.709Z,1005.63
2017-07-31T00:46:12.787Z,1005.68
2017-07-31T00:47:12.752Z,1005.63
2017-07-31T00:48:06.721Z,1005.60
2017-07-31T00:49:06.896Z,1005.61
2017-07-31T00:50:01.936Z,1005.59
2017-07-31T00:50:56.844Z,1005.68
2017-07-31T00:51:56.885Z,1005.69
2017-07-31T00:52:51.932Z,1005.71
2017-07-31T00:53:52.049Z,1005.70
2017-07-31T00:54:52.021Z,1005.68
2017-07-31T00:55:52.081Z,1005.68
2017-07-31T00:56:51.997Z,1005.62
2017-07-31T00:57:52.256Z,1005.67
2017-07-31T00:58:46.136Z,1005.71
2017-07-31T00:59:46.183Z,1005.73
2017-07-31T01:00:41.463Z,1005.75
2017-07-31T01:01:35.287Z,1005.76
2017-07-31T01:02:29.318Z,1005.78
2017-07-31T01:03:17.405Z,1005.82
2017-07-31T01:04:11.352Z,1005.81
2017-07-31T01:05:12.433Z,1005.81
2017-07-31T01:06:13.552Z,1005.79
2017-07-31T01:07:07.608Z,1005.79
2017-07-31T01:08:01.524Z,1005.80
2017-07-31T01:08:55.637Z,1005.78
2017-07-31T01:10:01.462Z,1005.84
2017-07-31T01:11:01.460Z,1005.82
2017-07-31T01:11:55.736Z,1005.85
2017-07-31T01:12:55.811Z,1005.85
2017-07-31T01:13:50.905Z,1005.89
2017-07-31T01:14:45.951Z,1005.88
2017-07-31T01:15:45.827Z,1005.89
2017-07-31T01:16:40.837Z,1005.90
2017-07-31T01:17:35.842Z,1005.90
2017-07-31T01:18:36.986Z,1005.88
2017-07-31T01:19:36.953Z,1005.89
2017-07-31T01:20:31.863Z,1005.85
2017-07-31T01:21:32.134Z,1005.90
2017-07-31T01:22:26.020Z,1005.89
2017-07-31T01:23:26.090Z,1005.85
2017-07-31T01:24:20.722Z,1005.89
2017-07-31T01:25:16.243Z,1005.87
2017-07-31T01:26:17.303Z,1005.84
2017-07-31T01:27:18.091Z,1005.84
2017-07-31T01:28:13.373Z,1005.82
2017-07-31T01:29:07.350Z,1005.84
2017-07-31T01:30:08.410Z,1005.85
2017-07-31T01:31:09.402Z,1005.84
2017-07-31T01:32:04.695Z,1005.85
2017-07-31T01:33:04.504Z,1005.87
2017-07-31T01:34:04.179Z,1005.89
2017-07-31T01:35:04.169Z,1005.86
2017-07-31T01:35:59.269Z,1005.85
2017-07-31T01:36:59.760Z,1005.81
2017-07-31T01:37:59.647Z,1005.82
2017-07-31T01:38:59.547Z,1005.80
2017-07-31T01:39:53.319Z,1005.81
2017-07-31T01:40:53.816Z,1005.81
2017-07-31T01:41:48.848Z,1005.80
2017-07-31T01:42:44.029Z,1005.83
2017-07-31T01:43:44.123Z,1005.86
2017-07-31T01:44:39.023Z,1005.86
2017-07-31T01:45:39.076Z,1005.87
2017-07-31T01:46:39.116Z,1005.86
2017-07-31T01:47:38.701Z,1005.84
2017-07-31T01:48:32.744Z,1005.78
2017-07-31T01:49:33.138Z,1005.79
2017-07-31T01:50:27.961Z,1005.80
2017-07-31T01:51:23.323Z,1005.78
2017-07-31T01:52:22.953Z,1005.81
2017-07-31T01:53:17.906Z,1005.82
2017-07-31T01:54:13.450Z,1005.81
2017-07-31T01:55:14.124Z,1005.82
2017-07-31T01:56:15.411Z,1005.85
2017-07-31T01:57:10.058Z,1005.84
2017-07-31T01:58:04.291Z,1005.87
2017-07-31T01:59:05.353Z,1005.82
2017-07-31T02:00:00.105Z,1005.83
2017-07-31T02:00:54.494Z,1005.79
2017-07-31T02:01:54.681Z,1005.78
2017-07-31T02:02:49.473Z,1005.75
2017-07-31T02:03:49.615Z,1005.75
2017-07-31T02:04:43.617Z,1005.71
2017-07-31T02:05:43.368Z,1005.70
2017-07-31T02:06:38.847Z,1005.67
2017-07-31T02:07:33.829Z,1005.68
2017-07-31T02:08:33.573Z,1005.72
2017-07-31T02:09:28.978Z,1005.72
2017-07-31T02:10:23.999Z,1005.72
2017-07-31T02:11:24.085Z,1005.70
2017-07-31T02:12:18.765Z,1005.74
2017-07-31T02:13:13.775Z,1005.74
2017-07-31T02:14:14.952Z,1005.73
2017-07-31T02:15:14.807Z,1005.73
2017-07-31T02:16:15.235Z,1005.77
2017-07-31T02:17:09.868Z,1005.76
2017-07-31T02:18:03.957Z,1005.78
2017-07-31T02:19:04.804Z,1005.80
2017-07-31T02:20:05.083Z,1005.77
2017-07-31T02:21:05.250Z,1005.76
2017-07-31T02:22:05.010Z,1005.81
2017-07-31T02:23:11.067Z,1005.83
2017-07-31T02:24:06.273Z,1005.87
2017-07-31T02:25:12.126Z,1005.82
2017-07-31T02:26:07.574Z,1005.82
2017-07-31T02:27:01.524Z,1005.85
2017-07-31T02:28:01.315Z,1005.84
2017-07-31T02:29:01.211Z,1005.84
2017-07-31T02:29:56.250Z,1005.82
2017-07-31T02:30:50.393Z,1005.81
2017-07-31T02:31:50.360Z,1005.79
2017-07-31T02:32:45.349Z,1005.82
2017-07-31T02:33:45.491Z,1005.80
2017-07-31T02:34:39.408Z,1005.81
2017-07-31T02:35:40.516Z,1005.80
2017-07-31T02:36:41.910Z,1005.81
2017-07-31T02:37:36.573Z,1005.79
2017-07-31T02:38:30.533Z,1005.82
2017-07-31T02:39:30.607Z,1005.79
2017-07-31T02:40:25.815Z,1005.79
2017-07-31T02:41:25.816Z,1005.79
2017-07-31T02:42:19.943Z,1005.79
2017-07-31T02:43:19.779Z,1005.81
2017-07-31T02:44:15.112Z,1005.83
2017-07-31T02:45:09.876Z,1005.85
2017-07-31T02:46:09.965Z,1005.83
2017-07-31T02:47:10.023Z,1005.85
2017-07-31T02:48:10.256Z,1005.86
2017-07-31T02:49:04.989Z,1005.84
2017-07-31T02:50:05.350Z,1005.84
2017-07-31T02:50:59.130Z,1005.83
2017-07-31T02:51:59.488Z,1005.83
2017-07-31T02:52:54.124Z,1005.83
2017-07-31T02:53:49.170Z,1005.84
2017-07-31T02:54:49.190Z,1005.84
2017-07-31T02:55:44.211Z,1005.86
2017-07-31T02:56:39.725Z,1005.87
2017-07-31T02:57:45.339Z,1005.89
2017-07-31T02:58:39.285Z,1005.89
2017-07-31T02:59:39.295Z,1005.91
2017-07-31T03:00:34.442Z,1005.88
2017-07-31T03:01:34.804Z,1005.88
2017-07-31T03:02:34.436Z,1005.89
2017-07-31T03:03:40.544Z,1005.87
2017-07-31T03:04:40.584Z,1005.91
2017-07-31T03:05:40.630Z,1005.94
2017-07-31T03:06:34.986Z,1005.98
2017-07-31T03:07:23.739Z,1005.99
2017-07-31T03:08:11.723Z,1005.99
2017-07-31T03:09:05.903Z,1006.02
2017-07-31T03:09:54.671Z,1006.00
2017-07-31T03:10:42.833Z,1006.00
2017-07-31T03:11:36.853Z,1006.01
2017-07-31T03:12:24.855Z,1006.04
2017-07-31T03:13:13.971Z,1006.05
2017-07-31T03:14:02.029Z,1006.04
2017-07-31T03:15:02.112Z,1006.02
2017-07-31T03:16:02.023Z,1006.04
2017-07-31T03:17:02.093Z,1006.04
2017-07-31T03:17:56.144Z,1006.09
2017-07-31T03:18:56.096Z,1006.08
2017-07-31T03:19:51.237Z,1006.08
2017-07-31T03:20:39.260Z,1006.11
2017-07-31T03:21:34.299Z,1006.12
2017-07-31T03:22:28.343Z,1006.07
2017-07-31T03:23:16.472Z,1006.11
2017-07-31T03:24:05.401Z,1006.12
2017-07-31T03:24:53.473Z,1006.08
2017-07-31T03:25:41.805Z,1006.13
2017-07-31T03:26:30.733Z,1006.14
2017-07-31T03:27:18.550Z,1006.12
2017-07-31T03:28:06.701Z,1006.13
2017-07-31T03:28:55.635Z,1006.14
2017-07-31T03:29:43.773Z,1006.12
2017-07-31T03:30:31.782Z,1006.13
2017-07-31T03:31:21.246Z,1006.12
2017-07-31T03:32:08.944Z,1006.15
2017-07-31T03:32:56.917Z,1006.18
2017-07-31T03:33:44.938Z,1006.20
2017-07-31T03:34:34.108Z,1006.22
2017-07-31T03:35:22.021Z,1006.22
2017-07-31T03:36:11.114Z,1006.30
2017-07-31T03:36:59.147Z,1006.27
2017-07-31T03:37:47.221Z,1006.32
2017-07-31T03:38:36.627Z,1006.33
2017-07-31T03:39:24.240Z,1006.27
2017-07-31T03:40:13.322Z,1006.34
2017-07-31T03:41:01.646Z,1006.29
2017-07-31T03:41:49.380Z,1006.31
2017-07-31T03:42:38.471Z,1006.32
2017-07-31T03:43:26.516Z,1006.33
2017-07-31T03:44:14.571Z,1006.36
2017-07-31T03:45:03.605Z,1006.35
2017-07-31T03:45:51.640Z,1006.36
2017-07-31T03:46:39.693Z,1006.38
2017-07-31T03:47:28.736Z,1006.37
2017-07-31T03:48:16.829Z,1006.34
2017-07-31T03:49:05.821Z,1006.33
2017-07-31T03:49:53.932Z,1006.34
2017-07-31T03:50:41.949Z,1006.36
2017-07-31T03:51:31.006Z,1006.37
2017-07-31T03:52:18.947Z,1006.32
2017-07-31T03:53:07.222Z,1006.38
2017-07-31T03:53:56.432Z,1006.42
2017-07-31T03:54:44.140Z,1006.46
2017-07-31T03:55:33.280Z,1006.48
2017-07-31T03:56:21.621Z,1006.50
2017-07-31T03:57:09.347Z,1006.47
2017-07-31T03:57:58.605Z,1006.45
2017-07-31T03:58:46.687Z,1006.45
2017-07-31T03:59:34.417Z,1006.44
2017-07-31T04:00:23.487Z,1006.47
2017-07-31T04:01:11.463Z,1006.48
2017-07-31T04:02:00.524Z,1006.47
2017-07-31T04:02:48.550Z,1006.47
2017-07-31T04:03:36.568Z,1006.51
2017-07-31T04:04:25.152Z,1006.50
2017-07-31T04:05:12.679Z,1006.53
2017-07-31T04:06:00.769Z,1006.53
2017-07-31T04:06:48.715Z,1006.53
2017-07-31T04:07:36.794Z,1006.56
2017-07-31T04:08:25.849Z,1006.58
2017-07-31T04:09:13.915Z,1006.59
2017-07-31T04:10:02.053Z,1006.60
2017-07-31T04:10:51.102Z,1006.62
2017-07-31T04:11:39.385Z,1006.65
2017-07-31T04:12:27.048Z,1006.67
2017-07-31T04:13:16.116Z,1006.63
2017-07-31T04:14:04.615Z,1006.65
2017-07-31T04:14:53.238Z,1006.66
2017-07-31T04:15:41.238Z,1006.66
2017-07-31T04:16:29.529Z,1006.65
2017-07-31T04:17:18.427Z,1006.69
2017-07-31T04:18:06.764Z,1006.71
2017-07-31T04:18:54.801Z,1006.72
2017-07-31T04:19:42.718Z,1006.69
2017-07-31T04:20:31.552Z,1006.73
2017-07-31T04:21:20.053Z,1006.78
2017-07-31T04:22:08.639Z,1006.75
2017-07-31T04:22:56.837Z,1006.77
2017-07-31T04:23:44.773Z,1006.80
2017-07-31T04:24:34.058Z,1006.80
2017-07-31T04:25:21.820Z,1006.82
2017-07-31T04:26:10.858Z,1006.80
2017-07-31T04:26:59.175Z,1006.80
2017-07-31T04:27:47.088Z,1006.87
2017-07-31T04:28:35.912Z,1006.93
2017-07-31T04:29:24.243Z,1006.92
2017-07-31T04:30:12.142Z,1006.91
2017-07-31T04:31:01.186Z,1006.94
2017-07-31T04:31:49.123Z,1006.91
2017-07-31T04:32:38.244Z,1006.96
2017-07-31T04:33:26.401Z,1006.92
2017-07-31T04:34:14.269Z,1006.93
2017-07-31T04:35:02.414Z,1006.91
2017-07-31T04:35:51.535Z,1006.89
2017-07-31T04:36:39.412Z,1006.92
2017-07-31T04:37:28.593Z,1006.89
2017-07-31T04:38:16.686Z,1006.90
2017-07-31T04:39:05.580Z,1006.94
2017-07-31T04:39:53.600Z,1006.97
2017-07-31T04:40:41.675Z,1006.95
2017-07-31T04:41:35.692Z,1006.93
2017-07-31T04:42:25.224Z,1006.98
2017-07-31T04:43:12.946Z,1006.97
2017-07-31T04:44:00.795Z,1006.99
2017-07-31T04:44:48.888Z,1007.02
2017-07-31T04:45:37.923Z,1007.04
2017-07-31T04:46:25.970Z,1007.04
2017-07-31T04:47:14.951Z,1007.02
2017-07-31T04:48:03.037Z,1007.01
2017-07-31T04:48:51.101Z,1007.02
2017-07-31T04:49:39.246Z,1007.01
2017-07-31T04:50:28.188Z,1006.98
2017-07-31T04:51:16.591Z,1006.99
2017-07-31T04:52:05.294Z,1006.95
2017-07-31T04:52:53.480Z,1006.99
2017-07-31T04:53:42.321Z,1006.98
2017-07-31T04:54:30.457Z,1006.95
2017-07-31T04:55:18.442Z,1006.94
2017-07-31T04:56:06.827Z,1006.94
2017-07-31T04:56:54.527Z,1006.96
2017-07-31T04:57:42.994Z,1006.95
2017-07-31T04:58:30.706Z,1006.97
2017-07-31T04:59:24.704Z,1006.97
2017-07-31T05:00:13.817Z,1006.97
2017-07-31T05:01:02.779Z,1006.96
2017-07-31T05:01:50.842Z,1006.94
2017-07-31T05:02:38.924Z,1006.95
2017-07-31T05:03:32.944Z,1006.92
2017-07-31T05:04:21.075Z,1006.93
2017-07-31T05:05:09.100Z,1006.92
2017-07-31T05:06:03.509Z,1006.93
2017-07-31T05:06:51.472Z,1006.95
2017-07-31T05:07:39.521Z,1006.97
2017-07-31T05:08:28.539Z,1006.99
2017-07-31T05:09:22.622Z,1006.94
2017-07-31T05:10:16.680Z,1006.94
2017-07-31T05:11:05.691Z,1006.91
2017-07-31T05:11:59.730Z,1006.94
2017-07-31T05:12:48.770Z,1006.98
2017-07-31T05:13:42.752Z,1007.01
2017-07-31T05:14:31.843Z,1007.02
2017-07-31T05:15:20.922Z,1007.00
2017-07-31T05:16:21.094Z,1007.02
2017-07-31T05:17:10.118Z,1007.01
2017-07-31T05:18:04.147Z,1007.04
2017-07-31T05:18:58.094Z,1007.03
2017-07-31T05:19:52.144Z,1007.04
2017-07-31T05:20:46.207Z,1007.04
2017-07-31T05:21:40.154Z,1007.02
2017-07-31T05:22:29.349Z,1006.99
2017-07-31T05:23:23.288Z,1006.99
2017-07-31T05:24:18.292Z,1007.02
2017-07-31T05:25:07.446Z,1007.04
2017-07-31T05:26:02.499Z,1007.01
2017-07-31T05:26:56.639Z,1006.96
2017-07-31T05:27:45.556Z,1007.00
2017-07-31T05:28:33.663Z,1007.01
2017-07-31T05:29:22.746Z,1006.99
2017-07-31T05:30:10.800Z,1007.03
2017-07-31T05:30:59.798Z,1007.02
2017-07-31T05:31:47.726Z,1007.00
2017-07-31T05:32:35.723Z,1006.99
2017-07-31T05:33:23.987Z,1007.01
2017-07-31T05:34:12.008Z,1006.99
2017-07-31T05:34:59.648Z,1007.00
2017-07-31T05:35:47.663Z,1007.02
2017-07-31T05:36:36.744Z,1007.03
2017-07-31T05:37:25.053Z,1007.04
2017-07-31T05:38:12.800Z,1007.04
2017-07-31T05:39:01.427Z,1006.99
2017-07-31T05:39:49.981Z,1006.96
2017-07-31T05:40:44.487Z,1006.96
2017-07-31T05:41:33.503Z,1007.01
2017-07-31T05:42:22.486Z,1006.95
2017-07-31T05:43:17.518Z,1006.95
2017-07-31T05:44:12.147Z,1006.93
2017-07-31T05:45:00.706Z,1006.92
2017-07-31T05:46:00.841Z,1006.87
2017-07-31T05:46:55.737Z,1006.90
2017-07-31T05:47:49.765Z,1006.87
2017-07-31T05:48:44.879Z,1006.85
2017-07-31T05:49:34.107Z,1006.87
2017-07-31T05:50:23.045Z,1006.89
2017-07-31T05:51:10.979Z,1006.93
2017-07-31T05:52:05.142Z,1006.84
2017-07-31T05:52:53.110Z,1006.82
2017-07-31T05:53:48.188Z,1006.80
2017-07-31T05:54:37.573Z,1006.80
2017-07-31T05:55:38.266Z,1006.80
2017-07-31T05:56:38.311Z,1006.75
2017-07-31T05:57:26.358Z,1006.84
2017-07-31T05:58:15.396Z,1006.88
2017-07-31T05:59:09.502Z,1006.92
2017-07-31T06:00:03.914Z,1006.92
2017-07-31T06:01:03.752Z,1006.92
2017-07-31T06:01:57.576Z,1006.92
2017-07-31T06:02:52.673Z,1006.97
2017-07-31T06:03:41.970Z,1006.96
2017-07-31T06:04:29.734Z,1006.97
2017-07-31T06:05:18.827Z,1006.92
2017-07-31T06:06:06.855Z,1006.89
2017-07-31T06:07:01.900Z,1006.85
2017-07-31T06:07:57.029Z,1006.85
2017-07-31T06:08:51.105Z,1006.85
2017-07-31T06:09:51.164Z,1006.79
2017-07-31T06:10:46.327Z,1006.77
2017-07-31T06:11:41.251Z,1006.83
2017-07-31T06:12:36.278Z,1006.80
2017-07-31T06:13:25.367Z,1006.81
2017-07-31T06:14:20.403Z,1006.82
2017-07-31T06:15:08.436Z,1006.81
2017-07-31T06:16:03.529Z,1006.79
2017-07-31T06:17:03.614Z,1006.73
2017-07-31T06:18:03.654Z,1006.72
2017-07-31T06:18:52.667Z,1006.73
2017-07-31T06:19:52.762Z,1006.68
2017-07-31T06:20:40.853Z,1006.69
2017-07-31T06:21:29.811Z,1006.65
2017-07-31T06:22:29.977Z,1006.62
2017-07-31T06:23:19.013Z,1006.68
2017-07-31T06:24:12.978Z,1006.63
2017-07-31T06:25:08.142Z,1006.72
2017-07-31T06:25:57.054Z,1006.73
2017-07-31T06:26:51.228Z,1006.69
2017-07-31T06:27:52.200Z,1006.71
2017-07-31T06:28:41.275Z,1006.66
2017-07-31T06:29:29.292Z,1006.69
2017-07-31T06:30:23.345Z,1006.69
2017-07-31T06:31:11.450Z,1006.74
2017-07-31T06:32:00.521Z,1006.75
2017-07-31T06:32:49.501Z,1006.78
2017-07-31T06:33:43.565Z,1006.79
2017-07-31T06:34:37.635Z,1006.78
2017-07-31T06:35:32.722Z,1006.81
2017-07-31T06:36:21.812Z,1006.82
2017-07-31T06:37:10.868Z,1006.87
2017-07-31T06:38:04.787Z,1006.89
2017-07-31T06:38:52.863Z,1006.86
2017-07-31T06:39:47.939Z,1006.85
2017-07-31T06:40:41.958Z,1006.85
2017-07-31T06:41:36.032Z,1006.86
2017-07-31T06:42:30.091Z,1006.88
2017-07-31T06:43:19.099Z,1006.92
2017-07-31T06:44:08.306Z,1006.93
2017-07-31T06:45:02.355Z,1006.95
2017-07-31T06:45:56.306Z,1006.93
2017-07-31T06:46:45.433Z,1006.90
2017-07-31T06:47:39.505Z,1006.93
2017-07-31T06:48:28.588Z,1006.92
2017-07-31T06:49:22.693Z,1006.94
2017-07-31T06:50:10.649Z,1006.92
2017-07-31T06:51:04.800Z,1006.92
2017-07-31T06:51:53.745Z,1006.93
2017-07-31T06:52:47.891Z,1006.95
2017-07-31T06:53:36.927Z,1006.92
2017-07-31T06:54:31.004Z,1006.91
2017-07-31T06:55:19.977Z,1006.97
2017-07-31T06:56:08.152Z,1007.00
2017-07-31T06:56:57.214Z,1006.99
2017-07-31T06:57:46.305Z,1007.00
2017-07-31T06:58:40.376Z,1007.02
2017-07-31T06:59:34.327Z,1007.01
2017-07-31T07:00:28.390Z,1007.05
2017-07-31T07:01:17.509Z,1007.08
2017-07-31T07:02:11.501Z,1007.06
2017-07-31T07:03:00.598Z,1007.07
2017-07-31T07:03:55.659Z,1007.07
2017-07-31T07:04:50.977Z,1007.02
2017-07-31T07:05:44.789Z,1007.05
2017-07-31T07:06:39.946Z,1007.07
2017-07-31T07:07:34.022Z,1007.01
2017-07-31T07:08:28.072Z,1007.02
2017-07-31T07:09:22.116Z,1007.01
2017-07-31T07:10:17.190Z,1007.02
2017-07-31T07:11:06.306Z,1006.98
2017-07-31T07:12:00.284Z,1006.98
2017-07-31T07:12:55.391Z,1006.96
2017-07-31T07:13:44.449Z,1006.97
2017-07-31T07:14:38.514Z,1006.94
2017-07-31T07:15:32.552Z,1006.93
2017-07-31T07:16:20.741Z,1006.95
2017-07-31T07:17:08.827Z,1006.90
2017-07-31T07:17:56.874Z,1006.89
2017-07-31T07:18:44.912Z,1006.93
2017-07-31T07:19:33.033Z,1006.96
2017-07-31T07:20:33.075Z,1006.94
2017-07-31T07:21:33.155Z,1006.98
2017-07-31T07:22:28.341Z,1006.98
2017-07-31T07:23:23.262Z,1006.97
2017-07-31T07:24:18.324Z,1006.96
2017-07-31T07:25:13.480Z,1007.00
2017-07-31T07:26:01.535Z,1007.00
2017-07-31T07:26:56.671Z,1006.98
2017-07-31T07:27:50.666Z,1006.95
2017-07-31T07:28:44.754Z,1006.94
2017-07-31T07:29:38.801Z,1006.96
2017-07-31T07:30:32.863Z,1006.98
2017-07-31T07:31:29.069Z,1006.99
2017-07-31T07:32:22.178Z,1006.98
2017-07-31T07:33:17.088Z,1006.98
2017-07-31T07:34:11.184Z,1006.97
2017-07-31T07:35:05.225Z,1006.94
2017-07-31T07:36:05.332Z,1006.85
2017-07-31T07:37:00.890Z,1006.86
2017-07-31T07:37:54.482Z,1006.91
2017-07-31T07:38:48.464Z,1006.99
2017-07-31T07:39:42.627Z,1006.96
2017-07-31T07:40:31.645Z,1006.84
2017-07-31T07:41:31.829Z,1006.84
2017-07-31T07:42:25.881Z,1006.82
2017-07-31T07:43:19.964Z,1006.94
2017-07-31T07:44:14.044Z,1006.96
2017-07-31T07:45:14.096Z,1006.96
2017-07-31T07:46:15.235Z,1006.98
2017-07-31T07:47:09.161Z,1006.95
2017-07-31T07:48:03.381Z,1006.96
2017-07-31T07:48:58.317Z,1007.01
2017-07-31T07:49:52.390Z,1007.07
2017-07-31T07:50:40.568Z,1007.08
2017-07-31T07:51:34.606Z,1006.99
2017-07-31T07:52:28.696Z,1006.96
2017-07-31T07:53:22.688Z,1006.99
2017-07-31T07:54:17.241Z,1006.99
2017-07-31T07:55:10.886Z,1007.01
2017-07-31T07:56:04.954Z,1007.04
2017-07-31T07:56:59.975Z,1007.07
2017-07-31T07:57:54.125Z,1007.05
2017-07-31T07:58:49.155Z,1007.08
2017-07-31T07:59:49.460Z,1007.04
2017-07-31T08:00:43.248Z,1007.02
2017-07-31T08:01:37.303Z,1006.99
2017-07-31T08:02:31.362Z,1006.93
2017-07-31T08:03:25.359Z,1006.96
2017-07-31T08:04:20.471Z,1006.83
2017-07-31T08:05:08.749Z,1006.90
2017-07-31T08:06:09.550Z,1006.98
2017-07-31T08:07:10.687Z,1007.15
2017-07-31T08:08:10.694Z,1007.24
2017-07-31T08:09:04.743Z,1007.30
2017-07-31T08:09:58.798Z,1007.26
2017-07-31T08:10:53.299Z,1007.35
2017-07-31T08:11:52.933Z,1007.20
2017-07-31T08:12:48.033Z,1007.35
2017-07-31T08:13:42.057Z,1007.30
2017-07-31T08:14:30.137Z,1007.28
2017-07-31T08:15:24.223Z,1007.27
2017-07-31T08:16:19.269Z,1007.25
2017-07-31T08:17:07.374Z,1007.21
2017-07-31T08:18:01.356Z,1007.06
2017-07-31T08:18:55.545Z,1007.07
2017-07-31T08:19:49.612Z,1007.15
2017-07-31T08:20:44.640Z,1007.14
2017-07-31T08:21:38.840Z,1007.03
2017-07-31T08:22:33.783Z,1007.17
2017-07-31T08:23:28.812Z,1007.26
2017-07-31T08:25:11.990Z,1007.09
2017-07-31T08:26:06.055Z,1007.17
2017-07-31T08:27:00.126Z,1007.14
2017-07-31T08:28:00.055Z,1007.19
2017-07-31T08:28:54.237Z,1007.26
2017-07-31T08:29:43.275Z,1006.96
2017-07-31T08:30:37.271Z,1007.12
2017-07-31T08:31:26.564Z,1007.04
2017-07-31T08:32:15.580Z,1007.05
2017-07-31T08:33:09.547Z,1007.11
2017-07-31T08:34:04.539Z,1007.16
2017-07-31T08:34:53.692Z,1007.09
2017-07-31T08:35:48.698Z,1007.22
2017-07-31T08:36:42.778Z,1006.99
2017-07-31T08:37:36.953Z,1006.92
2017-07-31T08:38:31.925Z,1006.97
2017-07-31T08:39:27.127Z,1007.16
2017-07-31T08:40:21.160Z,1007.20
2017-07-31T08:41:10.269Z,1007.12
2017-07-31T08:42:05.274Z,1007.13
2017-07-31T08:42:59.482Z,1007.34
2017-07-31T08:43:54.547Z,1007.26
2017-07-31T08:44:48.578Z,1007.08
2017-07-31T08:45:43.738Z,1007.06
2017-07-31T08:46:37.757Z,1006.95
2017-07-31T08:47:32.894Z,1007.02
2017-07-31T08:48:26.931Z,1007.03
2017-07-31T08:49:21.985Z,1007.08
2017-07-31T08:50:16.965Z,1007.09
2017-07-31T08:51:06.126Z,1007.18
2017-07-31T08:51:55.236Z,1007.09
2017-07-31T08:52:49.729Z,1007.13
2017-07-31T08:53:44.352Z,1007.09
2017-07-31T08:54:33.292Z,1007.10
2017-07-31T08:55:27.451Z,1007.11
2017-07-31T08:56:22.428Z,1007.30
2017-07-31T08:57:11.430Z,1007.08
2017-07-31T08:58:06.510Z,1007.26
2017-07-31T08:59:00.637Z,1007.20
2017-07-31T08:59:49.589Z,1007.11
2017-07-31T09:00:49.820Z,1007.20
2017-07-31T09:01:43.755Z,1007.10
2017-07-31T09:02:38.851Z,1007.06
2017-07-31T09:03:32.880Z,1007.05
2017-07-31T09:04:22.474Z,1007.02
2017-07-31T09:05:11.091Z,1007.02
2017-07-31T09:06:05.092Z,1007.01
2017-07-31T09:06:59.258Z,1006.96
2017-07-31T09:07:48.323Z,1007.02
2017-07-31T09:08:37.417Z,1006.99
2017-07-31T09:09:37.617Z,1006.96
2017-07-31T09:10:39.612Z,1006.93
2017-07-31T09:11:26.920Z,1006.86
2017-07-31T09:12:14.682Z,1006.87
2017-07-31T09:13:08.721Z,1006.81
2017-07-31T09:13:57.868Z,1006.85
2017-07-31T09:14:53.183Z,1006.87
2017-07-31T09:15:48.072Z,1006.85
2017-07-31T09:16:48.058Z,1006.89
2017-07-31T09:17:37.155Z,1006.95
2017-07-31T09:18:26.280Z,1006.87
2017-07-31T09:19:21.276Z,1006.93
2017-07-31T09:20:21.674Z,1006.79
2017-07-31T09:21:15.541Z,1006.89
2017-07-31T09:22:10.548Z,1006.95
2017-07-31T09:23:04.621Z,1006.94
2017-07-31T09:23:53.661Z,1006.95
2017-07-31T09:24:42.838Z,1006.87
2017-07-31T09:25:42.903Z,1006.83
2017-07-31T09:26:31.925Z,1006.83
2017-07-31T09:27:27.138Z,1006.79
2017-07-31T09:28:16.194Z,1006.79
2017-07-31T09:29:10.227Z,1006.82
2017-07-31T09:30:05.287Z,1006.78
2017-07-31T09:30:54.506Z,1006.71
2017-07-31T09:31:43.446Z,1006.73
2017-07-31T09:32:43.649Z,1006.83
2017-07-31T09:33:37.650Z,1006.87
2017-07-31T09:34:37.819Z,1006.87
2017-07-31T09:35:38.857Z,1006.87
2017-07-31T09:36:32.939Z,1006.87
2017-07-31T09:37:32.895Z,1006.87
2017-07-31T09:38:28.086Z,1006.89
2017-07-31T09:39:23.144Z,1006.91
2017-07-31T09:40:11.223Z,1006.89
2017-07-31T09:41:05.285Z,1006.84
2017-07-31T09:42:00.396Z,1006.84
2017-07-31T09:42:49.500Z,1006.89
2017-07-31T09:43:43.547Z,1006.82
2017-07-31T09:44:37.655Z,1006.91
2017-07-31T09:45:32.736Z,1006.89
2017-07-31T09:46:26.789Z,1006.90
2017-07-31T09:47:21.858Z,1006.88
2017-07-31T09:48:15.960Z,1006.87
2017-07-31T09:49:10.956Z,1006.85
2017-07-31T09:50:00.173Z,1006.87
2017-07-31T09:50:55.189Z,1006.94
2017-07-31T09:51:55.266Z,1007.02
2017-07-31T09:52:50.700Z,1007.02
2017-07-31T09:53:45.372Z,1006.97
2017-07-31T09:54:33.462Z,1006.96
2017-07-31T09:55:33.536Z,1007.06
2017-07-31T09:56:28.860Z,1007.00
2017-07-31T09:57:23.740Z,1006.98
2017-07-31T09:58:17.850Z,1007.08
2017-07-31T09:59:12.919Z,1007.16
2017-07-31T10:00:01.984Z,1007.30
2017-07-31T10:00:51.115Z,1007.40
2017-07-31T10:01:45.195Z,1007.41
2017-07-31T10:02:40.248Z,1007.42
2017-07-31T10:03:35.445Z,1007.39
2017-07-31T10:04:24.457Z,1007.01
2017-07-31T10:05:18.527Z,1007.06
2017-07-31T10:06:13.592Z,1007.04
2017-07-31T10:07:02.748Z,1007.13
2017-07-31T10:07:51.809Z,1007.04
2017-07-31T10:08:46.838Z,1007.35
2017-07-31T10:09:41.871Z,1007.26
2017-07-31T10:10:36.013Z,1007.25
2017-07-31T10:11:30.032Z,1007.23
2017-07-31T10:12:25.145Z,1007.19
2017-07-31T10:13:14.200Z,1007.20
2017-07-31T10:14:08.223Z,1007.25
2017-07-31T10:15:02.389Z,1007.28
2017-07-31T10:16:02.513Z,1007.50
2017-07-31T10:16:51.490Z,1007.40
2017-07-31T10:17:40.561Z,1007.34
2017-07-31T10:18:35.655Z,1007.45
2017-07-31T10:19:30.097Z,1007.42
2017-07-31T10:20:24.778Z,1007.26
2017-07-31T10:21:19.849Z,1007.27
2017-07-31T10:22:13.914Z,1007.42
2017-07-31T10:23:08.051Z,1007.32
2017-07-31T10:24:02.160Z,1007.41
2017-07-31T10:24:57.589Z,1007.55
2017-07-31T10:25:51.319Z,1007.55
2017-07-31T10:26:45.421Z,1007.51
2017-07-31T10:27:39.458Z,1007.35
2017-07-31T10:28:33.487Z,1007.31
2017-07-31T10:29:27.581Z,1007.24
2017-07-31T10:30:22.958Z,1007.15
2017-07-31T10:31:16.745Z,1007.32
2017-07-31T10:32:11.739Z,1007.33
2017-07-31T10:32:59.881Z,1007.36
2017-07-31T10:33:53.977Z,1007.42
2017-07-31T10:34:43.099Z,1007.40
2017-07-31T10:35:38.368Z,1007.52
2017-07-31T10:36:33.133Z,1007.63
2017-07-31T10:37:22.229Z,1007.38
2017-07-31T10:38:11.272Z,1007.52
2017-07-31T10:39:00.300Z,1007.54
2017-07-31T10:39:54.472Z,1007.50
2017-07-31T10:40:48.632Z,1007.53
2017-07-31T10:41:42.668Z,1007.61
2017-07-31T10:42:30.650Z,1007.66
2017-07-31T10:43:25.784Z,1007.61